createdAt,value
2022-11-07T00:02:16.522Z,62.96
2022-11-07T00:04:49.764Z,62.99
2022-11-07T00:07:22.552Z,63.00
2022-11-07T00:09:55.336Z,63.13
2022-11-07T00:12:28.547Z,63.09
2022-11-07T00:15:00.899Z,63.02
2022-11-07T00:17:33.592Z,63.05
2022-11-07T00:20:07.903Z,63.09
2022-11-07T00:22:40.285Z,62.90
2022-11-07T00:25:13.274Z,63.11
2022-11-07T00:27:45.624Z,63.09
2022-11-07T00:30:18.578Z,63.10
2022-11-07T00:32:50.812Z,63.14
2022-11-07T00:35:23.046Z,62.98
2022-11-07T00:37:56.815Z,62.97
2022-11-07T00:40:29.198Z,63.08
2022-11-07T00:43:01.505Z,63.05
2022-11-07T00:45:33.979Z,62.94
2022-11-07T00:48:07.033Z,63.03
2022-11-07T00:50:39.348Z,63.02
2022-11-07T00:53:11.824Z,63.07
2022-11-07T00:55:44.630Z,62.99
2022-11-07T00:58:17.781Z,62.98
2022-11-07T01:00:50.453Z,62.99
2022-11-07T01:03:40.137Z,63.01
2022-11-07T01:06:13.448Z,63.01
2022-11-07T01:08:45.822Z,62.97
2022-11-07T01:11:18.362Z,62.98
2022-11-07T01:13:51.369Z,62.98
2022-11-07T01:16:24.219Z,63.03
2022-11-07T01:18:56.909Z,62.97
2022-11-07T01:21:29.503Z,63.07
2022-11-07T01:24:03.738Z,63.00
2022-11-07T01:26:36.197Z,62.95
2022-11-07T01:29:09.722Z,62.96
2022-11-07T01:31:42.376Z,62.95
2022-11-07T01:34:15.313Z,62.98
2022-11-07T01:36:47.604Z,62.87
2022-11-07T01:39:19.795Z,62.91
2022-11-07T01:41:52.139Z,62.81
2022-11-07T01:44:56.311Z,62.72
2022-11-07T01:47:31.250Z,62.79
2022-11-07T01:50:04.374Z,62.82
2022-11-07T01:52:39.743Z,62.99
2022-11-07T01:55:17.575Z,62.84
2022-11-07T01:57:56.071Z,62.70
2022-11-07T02:00:29.580Z,62.71
2022-11-07T02:03:07.545Z,62.74
2022-11-07T02:05:45.140Z,62.84
2022-11-07T02:08:19.165Z,62.76
2022-11-07T02:10:52.373Z,62.82
2022-11-07T02:13:28.187Z,62.71
2022-11-07T02:16:00.178Z,62.66
2022-11-07T02:18:34.515Z,62.82
2022-11-07T02:21:13.729Z,62.84
2022-11-07T02:23:55.953Z,62.72
2022-11-07T02:26:29.163Z,62.69
2022-11-07T02:29:03.465Z,62.73
2022-11-07T02:31:35.742Z,62.85
2022-11-07T02:34:08.465Z,62.69
2022-11-07T02:36:41.543Z,62.85
2022-11-07T02:39:13.755Z,62.75
2022-11-07T02:41:46.476Z,62.62
2022-11-07T02:44:20.194Z,62.69
2022-11-07T02:46:52.702Z,62.76
2022-11-07T02:49:25.037Z,62.84
2022-11-07T02:51:57.726Z,62.75
2022-11-07T02:54:30.027Z,62.58
2022-11-07T02:57:02.418Z,62.64
2022-11-07T02:59:34.614Z,62.70
2022-11-07T03:02:07.095Z,62.74
2022-11-07T03:04:39.463Z,62.56
2022-11-07T03:07:11.847Z,62.72
2022-11-07T03:09:44.306Z,62.58
2022-11-07T03:12:16.556Z,62.63
2022-11-07T03:14:48.762Z,62.57
2022-11-07T03:17:21.773Z,62.54
2022-11-07T03:19:55.031Z,62.54
2022-11-07T03:22:27.456Z,62.39
2022-11-07T03:24:59.804Z,62.48
2022-11-07T03:27:32.061Z,62.34
2022-11-07T03:30:04.785Z,62.36
2022-11-07T03:32:37.447Z,62.18
2022-11-07T03:35:12.709Z,62.39
2022-11-07T03:37:47.751Z,62.29
2022-11-07T03:40:21.879Z,62.25
2022-11-07T03:42:54.403Z,62.33
2022-11-07T03:45:27.167Z,62.29
2022-11-07T03:47:59.870Z,62.26
2022-11-07T03:50:32.514Z,62.19
2022-11-07T03:53:05.220Z,62.22
2022-11-07T03:55:37.822Z,62.12
2022-11-07T03:58:10.450Z,62.13
2022-11-07T04:00:42.675Z,61.99
2022-11-07T04:03:15.298Z,62.05
2022-11-07T04:05:47.750Z,62.03
2022-11-07T04:08:20.596Z,62.04
2022-11-07T04:10:53.338Z,61.95
2022-11-07T04:13:43.297Z,61.91
2022-11-07T04:16:33.369Z,61.95
2022-11-07T04:19:05.640Z,61.91
2022-11-07T04:21:37.936Z,61.92
2022-11-07T04:24:10.269Z,62.01
2022-11-07T04:27:00.170Z,61.98
2022-11-07T04:29:32.430Z,61.80
2022-11-07T04:32:05.323Z,61.73
2022-11-07T04:34:38.439Z,61.64
2022-11-07T04:37:10.868Z,61.72
2022-11-07T04:39:43.150Z,61.77
2022-11-07T04:42:15.482Z,61.80
2022-11-07T04:44:47.783Z,61.80
2022-11-07T04:47:20.244Z,61.79
2022-11-07T04:49:52.882Z,61.85
2022-11-07T04:52:25.219Z,61.91
2022-11-07T04:54:57.626Z,61.77
2022-11-07T04:57:30.086Z,61.85
2022-11-07T05:00:02.712Z,61.73
2022-11-07T05:02:35.409Z,61.73
2022-11-07T05:05:10.822Z,61.89
2022-11-07T05:07:43.826Z,61.71
2022-11-07T05:10:21.429Z,61.80
2022-11-07T05:12:54.234Z,61.75
2022-11-07T05:15:26.749Z,61.69
2022-11-07T05:17:59.011Z,61.81
2022-11-07T05:20:33.821Z,61.75
2022-11-07T05:23:15.395Z,61.72
2022-11-07T05:25:50.039Z,61.77
2022-11-07T05:28:32.500Z,61.73
2022-11-07T05:31:16.117Z,61.76
2022-11-07T05:33:48.705Z,61.76
2022-11-07T05:36:23.269Z,61.76
2022-11-07T05:38:56.326Z,61.82
2022-11-07T05:41:28.563Z,61.84
2022-11-07T05:44:01.010Z,61.71
2022-11-07T05:46:33.259Z,61.75
2022-11-07T05:49:06.445Z,61.85
2022-11-07T05:51:38.787Z,62.02
2022-11-07T05:54:11.087Z,61.98
2022-11-07T05:56:44.227Z,61.98
2022-11-07T05:59:17.257Z,61.89
2022-11-07T06:01:51.297Z,61.95
2022-11-07T06:04:24.613Z,62.11
2022-11-07T06:06:56.827Z,62.13
2022-11-07T06:09:29.692Z,62.06
2022-11-07T06:12:04.012Z,62.14
2022-11-07T06:14:36.663Z,62.38
2022-11-07T06:17:10.206Z,62.21
2022-11-07T06:19:42.432Z,62.01
2022-11-07T06:22:14.757Z,61.99
2022-11-07T06:24:47.030Z,62.05
2022-11-07T06:27:19.370Z,62.06
2022-11-07T06:29:51.687Z,61.97
2022-11-07T06:32:24.490Z,61.87
2022-11-07T06:34:56.709Z,61.88
2022-11-07T06:37:30.100Z,61.81
2022-11-07T06:40:02.307Z,61.72
2022-11-07T06:42:34.578Z,61.61
2022-11-07T06:45:09.152Z,61.71
2022-11-07T06:47:41.407Z,61.60
2022-11-07T06:50:13.850Z,61.58
2022-11-07T06:52:46.117Z,61.54
2022-11-07T06:55:18.498Z,61.49
2022-11-07T06:57:50.741Z,61.40
2022-11-07T07:00:23.095Z,61.42
2022-11-07T07:02:59.350Z,61.50
2022-11-07T07:05:31.769Z,61.66
2022-11-07T07:08:04.537Z,61.66
2022-11-07T07:10:41.045Z,61.57
2022-11-07T07:13:14.368Z,61.71
2022-11-07T07:15:55.682Z,61.57
2022-11-07T07:18:28.891Z,61.47
2022-11-07T07:21:07.810Z,61.51
2022-11-07T07:23:41.212Z,61.51
2022-11-07T07:26:16.427Z,61.40
2022-11-07T07:28:49.566Z,61.38
2022-11-07T07:31:30.855Z,61.25
2022-11-07T07:34:03.059Z,61.11
2022-11-07T07:36:35.321Z,61.02
2022-11-07T07:39:07.712Z,61.01
2022-11-07T07:41:40.433Z,60.99
2022-11-07T07:44:12.805Z,60.86
2022-11-07T07:46:45.060Z,60.95
2022-11-07T07:49:17.403Z,61.02
2022-11-07T07:51:49.699Z,60.85
2022-11-07T07:54:21.922Z,60.83
2022-11-07T07:56:54.171Z,60.60
2022-11-07T07:59:26.411Z,60.64
2022-11-07T08:01:58.877Z,60.60
2022-11-07T08:04:31.431Z,60.51
2022-11-07T08:07:03.671Z,60.36
2022-11-07T08:09:36.826Z,60.07
2022-11-07T08:12:10.128Z,60.28
2022-11-07T08:14:42.572Z,60.23
2022-11-07T08:17:14.871Z,60.07
2022-11-07T08:19:47.089Z,59.79
2022-11-07T08:22:19.326Z,59.84
2022-11-07T08:24:51.737Z,59.73
2022-11-07T08:27:23.961Z,59.54
2022-11-07T08:29:56.176Z,59.31
2022-11-07T08:32:29.594Z,59.52
2022-11-07T08:35:02.114Z,59.47
2022-11-07T08:37:34.443Z,59.56
2022-11-07T08:40:08.131Z,59.32
2022-11-07T08:42:41.017Z,59.31
2022-11-07T08:45:14.085Z,59.39
2022-11-07T08:47:46.368Z,59.21
2022-11-07T08:50:18.833Z,59.16
2022-11-07T08:52:51.154Z,59.15
2022-11-07T08:55:23.561Z,59.08
2022-11-07T08:58:01.080Z,58.97
2022-11-07T09:00:33.824Z,58.92
2022-11-07T09:03:31.305Z,58.67
2022-11-07T09:06:00.797Z,58.50
2022-11-07T09:08:33.195Z,58.44
2022-11-07T09:11:06.558Z,58.46
2022-11-07T09:13:39.229Z,58.33
2022-11-07T09:16:12.339Z,58.34
2022-11-07T09:18:44.871Z,58.34
2022-11-07T09:21:21.991Z,58.26
2022-11-07T09:23:55.163Z,58.16
2022-11-07T09:26:27.522Z,57.98
2022-11-07T09:29:01.234Z,57.95
2022-11-07T09:31:33.686Z,57.77
2022-11-07T09:34:07.478Z,57.62
2022-11-07T09:36:39.623Z,57.55
2022-11-07T09:39:11.891Z,57.42
2022-11-07T09:41:54.398Z,57.37
2022-11-07T09:44:48.844Z,57.38
2022-11-07T09:47:28.129Z,57.46
2022-11-07T09:50:02.817Z,57.16
2022-11-07T09:52:42.116Z,57.05
2022-11-07T09:55:21.583Z,56.77
2022-11-07T09:57:56.774Z,56.78
2022-11-07T10:00:33.213Z,56.61
2022-11-07T10:03:05.590Z,56.63
2022-11-07T10:05:48.360Z,56.54
2022-11-07T10:08:28.697Z,56.41
2022-11-07T10:11:05.062Z,56.13
2022-11-07T10:13:59.136Z,55.89
2022-11-07T10:16:43.533Z,55.59
2022-11-07T10:19:29.208Z,55.45
2022-11-07T10:22:12.337Z,55.22
2022-11-07T10:24:56.972Z,54.87
2022-11-07T10:27:32.863Z,54.68
2022-11-07T10:30:07.977Z,54.54
2022-11-07T10:32:49.223Z,54.42
2022-11-07T10:35:28.428Z,54.10
2022-11-07T10:38:02.459Z,53.91
2022-11-07T10:40:41.696Z,53.88
2022-11-07T10:43:22.027Z,53.43
2022-11-07T10:45:56.996Z,53.29
2022-11-07T10:48:30.312Z,53.08
2022-11-07T10:51:02.706Z,53.07
2022-11-07T10:53:44.097Z,52.80
2022-11-07T10:56:20.749Z,52.76
2022-11-07T10:58:52.937Z,52.51
2022-11-07T11:01:28.645Z,52.45
2022-11-07T11:04:01.359Z,51.79
2022-11-07T11:06:34.095Z,51.93
2022-11-07T11:09:17.296Z,51.89
2022-11-07T11:11:53.874Z,51.91
2022-11-07T11:14:26.408Z,51.58
2022-11-07T11:16:59.233Z,51.38
2022-11-07T11:19:40.695Z,51.50
2022-11-07T11:22:19.878Z,51.24
2022-11-07T11:25:04.341Z,51.21
2022-11-07T11:27:38.532Z,50.99
2022-11-07T11:30:17.338Z,50.82
2022-11-07T11:32:55.983Z,50.72
2022-11-07T11:35:42.232Z,50.67
2022-11-07T11:38:23.892Z,50.56
2022-11-07T11:41:07.681Z,50.61
2022-11-07T11:43:47.801Z,50.50
2022-11-07T11:46:27.113Z,50.76
2022-11-07T11:49:02.903Z,50.56
2022-11-07T11:51:41.698Z,50.43
2022-11-07T11:54:16.139Z,50.28
2022-11-07T11:56:57.208Z,50.45
2022-11-07T11:59:48.599Z,50.43
2022-11-07T12:02:47.343Z,50.31
2022-11-07T12:05:28.165Z,50.24
2022-11-07T12:08:17.222Z,50.37
2022-11-07T12:10:58.848Z,50.26
2022-11-07T12:13:40.730Z,50.30
2022-11-07T12:16:23.430Z,50.17
2022-11-07T12:19:07.274Z,50.06
2022-11-07T12:21:50.240Z,49.95
2022-11-07T12:24:40.504Z,49.91
2022-11-07T12:27:27.197Z,50.03
2022-11-07T12:30:19.748Z,49.89
2022-11-07T12:33:04.626Z,49.98
2022-11-07T12:35:55.053Z,50.01
2022-11-07T12:38:55.001Z,50.00
2022-11-07T12:41:36.930Z,49.81
2022-11-07T12:44:25.788Z,49.74
2022-11-07T12:47:00.730Z,49.64
2022-11-07T12:50:06.309Z,49.58
2022-11-07T12:52:53.996Z,49.68
2022-11-07T12:55:31.684Z,49.65
2022-11-07T12:58:06.432Z,49.71
2022-11-07T13:00:39.204Z,49.67
2022-11-07T13:03:24.075Z,49.66
2022-11-07T13:06:09.868Z,49.52
2022-11-07T13:08:52.057Z,49.54
2022-11-07T13:11:33.871Z,49.37
2022-11-07T13:14:24.233Z,49.62
2022-11-07T13:17:17.325Z,49.35
2022-11-07T13:20:01.888Z,49.34
2022-11-07T13:22:38.744Z,49.37
2022-11-07T13:25:26.355Z,49.37
2022-11-07T13:28:38.282Z,49.34
2022-11-07T13:31:34.200Z,49.46
2022-11-07T13:34:28.207Z,49.23
2022-11-07T13:37:04.787Z,49.30
2022-11-07T13:39:37.389Z,49.29
2022-11-07T13:42:10.837Z,49.40
2022-11-07T13:44:43.913Z,49.27
2022-11-07T13:47:22.726Z,49.29
2022-11-07T13:50:00.290Z,49.29
2022-11-07T13:52:41.737Z,49.29
2022-11-07T13:55:20.164Z,49.32
2022-11-07T13:57:57.116Z,49.35
2022-11-07T14:00:30.579Z,49.30
2022-11-07T14:03:03.849Z,49.37
2022-11-07T14:05:38.975Z,49.31
2022-11-07T14:08:29.952Z,49.40
2022-11-07T14:11:02.733Z,49.28
2022-11-07T14:13:41.246Z,49.34
2022-11-07T14:16:23.204Z,49.22
2022-11-07T14:18:59.340Z,49.59
2022-11-07T14:21:33.420Z,49.85
2022-11-07T14:24:20.760Z,49.80
2022-11-07T14:27:05.166Z,49.88
2022-11-07T14:29:37.562Z,49.65
2022-11-07T14:32:19.146Z,49.62
2022-11-07T14:34:53.337Z,49.33
2022-11-07T14:37:27.284Z,49.48
2022-11-07T14:40:01.031Z,49.34
2022-11-07T14:42:33.369Z,49.34
2022-11-07T14:45:06.601Z,49.08
2022-11-07T14:47:39.042Z,49.14
2022-11-07T14:50:18.971Z,49.43
2022-11-07T14:53:03.409Z,49.24
2022-11-07T14:55:38.713Z,49.36
2022-11-07T14:58:14.904Z,49.36
2022-11-07T15:00:57.000Z,49.30
2022-11-07T15:03:37.082Z,49.35
2022-11-07T15:06:21.935Z,49.31
2022-11-07T15:09:06.345Z,49.26
2022-11-07T15:11:40.210Z,49.04
2022-11-07T15:14:26.602Z,48.99
2022-11-07T15:17:00.962Z,49.00
2022-11-07T15:19:35.074Z,48.99
2022-11-07T15:22:08.005Z,49.06
2022-11-07T15:24:45.495Z,49.19
2022-11-07T15:27:24.128Z,49.12
2022-11-07T15:29:58.871Z,49.03
2022-11-07T15:32:35.035Z,49.11
2022-11-07T15:35:42.545Z,49.18
2022-11-07T15:38:17.679Z,49.07
2022-11-07T15:40:51.616Z,49.23
2022-11-07T15:43:24.660Z,49.25
2022-11-07T15:45:57.747Z,49.29
2022-11-07T15:48:39.796Z,49.32
2022-11-07T15:51:13.314Z,49.35
2022-11-07T15:53:45.698Z,49.48
2022-11-07T15:56:21.653Z,49.45
2022-11-07T15:58:54.976Z,49.43
2022-11-07T16:01:27.478Z,49.50
2022-11-07T16:03:59.819Z,49.48
2022-11-07T16:06:33.189Z,49.68
2022-11-07T16:09:11.487Z,49.61
2022-11-07T16:11:43.751Z,49.58
2022-11-07T16:14:43.088Z,49.64
2022-11-07T16:17:13.440Z,49.79
2022-11-07T16:19:45.730Z,49.79
2022-11-07T16:22:18.832Z,49.85
2022-11-07T16:24:51.083Z,50.04
2022-11-07T16:27:23.445Z,50.15
2022-11-07T16:29:55.799Z,50.14
2022-11-07T16:32:28.147Z,50.19
2022-11-07T16:35:00.482Z,50.20
2022-11-07T16:37:32.722Z,50.19
2022-11-07T16:40:05.207Z,50.24
2022-11-07T16:42:37.693Z,50.25
2022-11-07T16:45:11.607Z,50.30
2022-11-07T16:47:45.234Z,50.26
2022-11-07T16:50:18.576Z,50.28
2022-11-07T16:52:50.948Z,50.31
2022-11-07T16:55:23.498Z,50.28
2022-11-07T16:57:55.711Z,50.36
2022-11-07T17:00:27.934Z,50.32
2022-11-07T17:03:00.378Z,50.36
2022-11-07T17:05:32.776Z,50.38
2022-11-07T17:08:05.437Z,50.34
2022-11-07T17:10:37.865Z,50.42
2022-11-07T17:13:10.192Z,50.50
2022-11-07T17:15:42.812Z,50.67
2022-11-07T17:18:22.583Z,50.80
2022-11-07T17:20:55.869Z,50.92
2022-11-07T17:23:30.502Z,50.96
2022-11-07T17:26:03.028Z,51.06
2022-11-07T17:28:35.262Z,51.21
2022-11-07T17:31:07.614Z,51.29
2022-11-07T17:33:40.015Z,51.29
2022-11-07T17:36:36.806Z,51.52
2022-11-07T17:39:12.747Z,51.52
2022-11-07T17:41:46.441Z,51.61
2022-11-07T17:44:19.636Z,51.67
2022-11-07T17:46:52.406Z,51.68
2022-11-07T17:49:24.711Z,51.86
2022-11-07T17:51:57.427Z,51.83
2022-11-07T17:54:29.908Z,51.91
2022-11-07T17:57:03.784Z,51.99
2022-11-07T17:59:36.147Z,52.08
2022-11-07T18:02:16.449Z,52.09
2022-11-07T18:04:49.002Z,52.25
2022-11-07T18:07:21.285Z,52.26
2022-11-07T18:09:54.969Z,52.37
2022-11-07T18:12:27.305Z,52.42
2022-11-07T18:14:59.521Z,52.55
2022-11-07T18:17:31.792Z,52.49
2022-11-07T18:20:04.406Z,52.74
2022-11-07T18:22:38.031Z,52.68
2022-11-07T18:25:11.310Z,52.79
2022-11-07T18:27:43.574Z,53.04
2022-11-07T18:30:16.733Z,53.01
2022-11-07T18:32:49.024Z,53.09
2022-11-07T18:35:21.314Z,53.05
2022-11-07T18:37:53.586Z,53.15
2022-11-07T18:40:25.815Z,53.23
2022-11-07T18:42:58.048Z,53.29
2022-11-07T18:45:30.273Z,53.36
2022-11-07T18:48:02.604Z,53.44
2022-11-07T18:50:37.014Z,53.45
2022-11-07T18:53:09.599Z,53.54
2022-11-07T18:55:41.846Z,53.38
2022-11-07T18:58:14.286Z,53.47
2022-11-07T19:00:48.590Z,53.63
2022-11-07T19:03:20.915Z,53.59
2022-11-07T19:06:00.067Z,53.83
2022-11-07T19:08:33.151Z,53.81
2022-11-07T19:11:08.187Z,53.92
2022-11-07T19:13:42.181Z,53.83
2022-11-07T19:16:16.766Z,53.89
2022-11-07T19:18:50.891Z,54.04
2022-11-07T19:21:24.747Z,54.01
2022-11-07T19:23:57.116Z,54.17
2022-11-07T19:26:29.525Z,54.13
2022-11-07T19:29:02.521Z,54.21
2022-11-07T19:31:35.183Z,54.07
2022-11-07T19:34:08.331Z,54.19
2022-11-07T19:36:40.560Z,54.20
2022-11-07T19:39:12.934Z,54.19
2022-11-07T19:41:45.202Z,54.28
2022-11-07T19:44:17.748Z,54.22
2022-11-07T19:46:49.995Z,54.31
2022-11-07T19:49:22.252Z,54.39
2022-11-07T19:51:55.790Z,54.50
2022-11-07T19:54:28.028Z,54.54
2022-11-07T19:57:00.313Z,54.62
2022-11-07T19:59:32.533Z,54.61
2022-11-07T20:02:31.188Z,54.59
2022-11-07T20:04:57.702Z,54.55
2022-11-07T20:07:30.054Z,54.85
2022-11-07T20:10:02.353Z,54.90
2022-11-07T20:12:34.658Z,54.84
2022-11-07T20:15:08.194Z,54.91
2022-11-07T20:17:41.709Z,54.95
2022-11-07T20:20:14.602Z,54.96
2022-11-07T20:22:48.852Z,55.03
2022-11-07T20:25:21.434Z,55.03
2022-11-07T20:27:53.698Z,55.13
2022-11-07T20:30:26.027Z,55.10
2022-11-07T20:32:58.271Z,55.12
2022-11-07T20:35:30.674Z,55.32
2022-11-07T20:38:02.922Z,55.31
2022-11-07T20:40:35.224Z,55.22
2022-11-07T20:43:08.921Z,55.34
2022-11-07T20:45:41.195Z,55.32
2022-11-07T20:48:13.607Z,55.27
2022-11-07T20:50:45.831Z,55.38
2022-11-07T20:53:18.661Z,55.46
2022-11-07T20:55:51.171Z,55.32
2022-11-07T20:58:23.707Z,55.50
2022-11-07T21:00:55.997Z,55.53
2022-11-07T21:03:28.757Z,55.42
2022-11-07T21:06:00.989Z,55.68
2022-11-07T21:08:37.246Z,55.72
2022-11-07T21:11:10.427Z,55.66
2022-11-07T21:13:51.144Z,55.48
2022-11-07T21:16:26.625Z,55.64
2022-11-07T21:18:59.467Z,55.63
2022-11-07T21:21:33.825Z,55.64
2022-11-07T21:24:06.515Z,55.88
2022-11-07T21:26:40.192Z,55.97
2022-11-07T21:29:12.583Z,55.93
2022-11-07T21:31:45.078Z,55.96
2022-11-07T21:34:17.347Z,55.93
2022-11-07T21:36:49.585Z,56.01
2022-11-07T21:39:21.971Z,56.15
2022-11-07T21:41:54.197Z,56.17
2022-11-07T21:44:26.410Z,56.14
2022-11-07T21:46:58.610Z,56.28
2022-11-07T21:49:31.028Z,56.22
2022-11-07T21:52:03.785Z,56.22
2022-11-07T21:54:36.034Z,56.26
2022-11-07T21:57:08.429Z,56.48
2022-11-07T21:59:40.641Z,56.53
2022-11-07T22:02:15.086Z,56.50
2022-11-07T22:04:47.488Z,56.51
2022-11-07T22:07:19.718Z,56.75
2022-11-07T22:09:52.071Z,56.82
2022-11-07T22:12:24.459Z,56.98
2022-11-07T22:14:56.734Z,56.92
2022-11-07T22:17:29.042Z,56.89
2022-11-07T22:20:01.324Z,57.02
2022-11-07T22:22:34.672Z,57.28
2022-11-07T22:25:08.013Z,57.35
2022-11-07T22:27:40.240Z,57.32
2022-11-07T22:30:14.244Z,57.44
2022-11-07T22:32:46.511Z,57.29
2022-11-07T22:35:19.138Z,57.38
2022-11-07T22:37:51.365Z,57.57
2022-11-07T22:40:23.636Z,57.57
2022-11-07T22:42:55.841Z,57.59
2022-11-07T22:45:28.169Z,57.76
2022-11-07T22:48:00.474Z,57.74
2022-11-07T22:50:33.179Z,57.66
2022-11-07T22:53:05.478Z,57.74
2022-11-07T22:55:41.543Z,57.84
2022-11-07T22:58:13.871Z,57.90
2022-11-07T23:00:46.250Z,57.94
2022-11-07T23:03:18.587Z,58.05
2022-11-07T23:05:50.989Z,57.91
2022-11-07T23:08:23.362Z,58.04
2022-11-07T23:14:00.666Z,58.16
2022-11-07T23:16:35.648Z,58.16
2022-11-07T23:19:10.294Z,57.94
2022-11-07T23:21:42.761Z,58.25
2022-11-07T23:24:15.511Z,58.12
2022-11-07T23:26:47.841Z,58.34
2022-11-07T23:29:23.057Z,58.21
2022-11-07T23:31:55.394Z,58.25
2022-11-07T23:34:27.684Z,58.25
2022-11-07T23:37:00.012Z,58.31
2022-11-07T23:39:32.524Z,58.43
2022-11-07T23:42:04.932Z,58.32
2022-11-07T23:44:58.319Z,58.33
2022-11-07T23:47:48.111Z,58.41
2022-11-07T23:50:38.095Z,58.35
2022-11-07T23:53:31.032Z,58.51
2022-11-07T23:56:06.138Z,58.56
2022-11-07T23:58:55.845Z,58.33
